Terminal Aerodrome Forecast
Issued by NWS Brownsville, TX

Current Version | Previous Version | Text Only | Print | Product List | Glossary On
Versions: 1 2 3 4 5 6 7 8 9 10 11 12 13 14 15 16 17 18 19 20 21
000
FTUS44 KBRO 051228 AAA
TAFBRO
TAF AMD
KBRO 051228Z 0512/0612 13014G19KT P6SM SCT015 SCT022
      TEMPO 0512/0514 BKN015 BKN022
     FM051400 14013G21KT P6SM BKN025
     FM051600 14017G26KT P6SM SCT035
     FM060200 13011G17KT P6SM BKN025
     FM060500 13011KT P6SM BKN015=

USA.gov is the U.S. government's official web portal to all federal, state and local government web resources and services.